SAS121 GMMN-GCTS
Flight info
| Callsign | SAS121 |
|---|---|
| Flight time | 1h 57m |
| Altitude | 37000 |
| Route | NIKZO UR975 ADM UN869 RUSIK |
| Aircraft | A320/M-SDE3FGHIRWY/LB1 |
Departure
| Time | 2026-05-04 17:40 |
|---|---|
| Airport | Mohammed V International Airport (GMMN) |
Arrival
| Time | 2026-05-04 19:37 |
|---|---|
| Airport | Tenerife Sur Airport (GCTS) |
| Time | Latitude | Longitude | Altitude | Speed | Heading |
|---|---|---|---|---|---|
| 2026-05-04 17:15 | 33.35770 | -7.57051 | 656 ft | 0 kts | 22° |
| 2026-05-04 17:31 | 33.35772 | -7.57051 | 653 ft | 1 kts | 20° |
| 2026-05-04 17:32 | 33.35811 | -7.57075 | 654 ft | 4 kts | 290° |
| 2026-05-04 17:33 | 33.35800 | -7.57155 | 654 ft | 7 kts | 256° |
| 2026-05-04 17:33 | 33.35783 | -7.57233 | 653 ft | 12 kts | 255° |
| 2026-05-04 17:34 | 33.35706 | -7.57547 | 653 ft | 10 kts | 254° |
| 2026-05-04 17:34 | 33.35691 | -7.57614 | 653 ft | 8 kts | 254° |
| 2026-05-04 17:35 | 33.35653 | -7.57760 | 654 ft | 5 kts | 253° |
| 2026-05-04 17:35 | 33.35635 | -7.57834 | 653 ft | 4 kts | 253° |
| 2026-05-04 17:35 | 33.35617 | -7.57905 | 653 ft | 11 kts | 254° |
| 2026-05-04 17:36 | 33.35597 | -7.57988 | 653 ft | 10 kts | 253° |
| 2026-05-04 17:36 | 33.35552 | -7.58020 | 655 ft | 7 kts | 174° |
| 2026-05-04 17:36 | 33.35508 | -7.58004 | 652 ft | 6 kts | 163° |
| 2026-05-04 17:36 | 33.35472 | -7.57991 | 652 ft | 6 kts | 163° |
| 2026-05-04 17:37 | 33.35412 | -7.57970 | 652 ft | 9 kts | 163° |
| 2026-05-04 17:37 | 33.35358 | -7.57951 | 653 ft | 8 kts | 164° |
| 2026-05-04 17:37 | 33.35312 | -7.57943 | 653 ft | 6 kts | 185° |
| 2026-05-04 17:37 | 33.35278 | -7.57961 | 653 ft | 6 kts | 216° |
| 2026-05-04 17:38 | 33.35248 | -7.58032 | 653 ft | 10 kts | 253° |
| 2026-05-04 17:38 | 33.35229 | -7.58107 | 653 ft | 9 kts | 254° |
| 2026-05-04 17:38 | 33.35215 | -7.58167 | 654 ft | 6 kts | 255° |
| 2026-05-04 17:38 | 33.35214 | -7.58228 | 654 ft | 9 kts | 278° |
| 2026-05-04 17:39 | 33.35348 | -7.58310 | 652 ft | 37 kts | 343° |
| 2026-05-04 17:39 | 33.35839 | -7.58472 | 645 ft | 105 kts | 344° |
| 2026-05-04 17:39 | 33.36719 | -7.58768 | 653 ft | 155 kts | 343° |
| 2026-05-04 17:40 | 33.37823 | -7.59138 | 1061 ft | 171 kts | 347° |
| 2026-05-04 17:40 | 33.39040 | -7.59527 | 1565 ft | 193 kts | 347° |
| 2026-05-04 17:40 | 33.40392 | -7.59974 | 2103 ft | 213 kts | 344° |
| 2026-05-04 17:40 | 33.41764 | -7.60814 | 2818 ft | 225 kts | 325° |
| 2026-05-04 17:41 | 33.42855 | -7.62179 | 3582 ft | 236 kts | 305° |
| 2026-05-04 17:41 | 33.43525 | -7.63993 | 4463 ft | 243 kts | 284° |
| 2026-05-04 17:41 | 33.43621 | -7.66021 | 5323 ft | 248 kts | 262° |
| 2026-05-04 17:41 | 33.43091 | -7.67990 | 6219 ft | 251 kts | 241° |
| 2026-05-04 17:42 | 33.41985 | -7.69616 | 7116 ft | 253 kts | 223° |
| 2026-05-04 17:42 | 33.40678 | -7.71025 | 8055 ft | 252 kts | 225° |
| 2026-05-04 17:42 | 33.39499 | -7.72543 | 9091 ft | 247 kts | 231° |
| 2026-05-04 17:42 | 33.38447 | -7.74176 | 9963 ft | 250 kts | 236° |
| 2026-05-04 17:43 | 33.37517 | -7.75946 | 10738 ft | 252 kts | 241° |
| 2026-05-04 17:43 | 33.36715 | -7.77839 | 11456 ft | 257 kts | 246° |
| 2026-05-04 17:43 | 33.36054 | -7.79833 | 12239 ft | 259 kts | 250° |
| 2026-05-04 17:43 | 33.35425 | -7.81864 | 13015 ft | 262 kts | 249° |
| 2026-05-04 17:44 | 33.34552 | -7.83783 | 13778 ft | 267 kts | 234° |
| 2026-05-04 17:44 | 33.33193 | -7.85438 | 14031 ft | 292 kts | 222° |
| 2026-05-04 17:44 | 33.31566 | -7.87049 | 14196 ft | 315 kts | 222° |
| 2026-05-04 17:44 | 33.29815 | -7.88783 | 14325 ft | 338 kts | 222° |
| 2026-05-04 17:45 | 33.27949 | -7.90631 | 14444 ft | 359 kts | 222° |
| 2026-05-04 17:45 | 33.25983 | -7.92576 | 14712 ft | 373 kts | 221° |
| 2026-05-04 17:45 | 33.23978 | -7.94562 | 15255 ft | 378 kts | 222° |
| 2026-05-04 17:45 | 33.21944 | -7.96576 | 15842 ft | 381 kts | 222° |
| 2026-05-04 17:46 | 33.19902 | -7.98599 | 16439 ft | 383 kts | 222° |
| 2026-05-04 17:46 | 33.17843 | -8.00641 | 17027 ft | 386 kts | 222° |
| 2026-05-04 17:46 | 33.15756 | -8.02673 | 17617 ft | 389 kts | 219° |
| 2026-05-04 17:46 | 33.13394 | -8.04304 | 18173 ft | 397 kts | 206° |
| 2026-05-04 17:47 | 33.10734 | -8.05284 | 18672 ft | 405 kts | 194° |
| 2026-05-04 17:47 | 33.07901 | -8.05598 | 19144 ft | 412 kts | 187° |
| 2026-05-04 17:47 | 33.05031 | -8.05771 | 19626 ft | 414 kts | 187° |
| 2026-05-04 17:47 | 33.02139 | -8.05949 | 20114 ft | 417 kts | 187° |
| 2026-05-04 17:48 | 32.99272 | -8.06129 | 20569 ft | 420 kts | 187° |
| 2026-05-04 17:48 | 32.96344 | -8.06317 | 21029 ft | 422 kts | 188° |
| 2026-05-04 17:48 | 32.93438 | -8.06762 | 21478 ft | 419 kts | 197° |
| 2026-05-04 17:48 | 32.90648 | -8.07754 | 21908 ft | 417 kts | 205° |
| 2026-05-04 17:49 | 32.87938 | -8.09020 | 22334 ft | 419 kts | 206° |
| 2026-05-04 17:49 | 32.85219 | -8.10297 | 22763 ft | 422 kts | 206° |
| 2026-05-04 17:49 | 32.82477 | -8.11584 | 23173 ft | 424 kts | 206° |
| 2026-05-04 17:49 | 32.79731 | -8.12871 | 23588 ft | 427 kts | 206° |
| 2026-05-04 17:50 | 32.76959 | -8.14170 | 23928 ft | 429 kts | 206° |
| 2026-05-04 17:50 | 32.74176 | -8.15473 | 24274 ft | 431 kts | 206° |
| 2026-05-04 17:50 | 32.71377 | -8.16782 | 24629 ft | 433 kts | 206° |
| 2026-05-04 17:50 | 32.68565 | -8.18095 | 24970 ft | 435 kts | 206° |
| 2026-05-04 17:51 | 32.65741 | -8.19410 | 25291 ft | 437 kts | 206° |
| 2026-05-04 17:51 | 32.62896 | -8.20734 | 25617 ft | 439 kts | 205° |
| 2026-05-04 17:51 | 32.60040 | -8.22061 | 25918 ft | 441 kts | 205° |
| 2026-05-04 17:51 | 32.57215 | -8.23372 | 26215 ft | 443 kts | 205° |
| 2026-05-04 17:52 | 32.54341 | -8.24704 | 26513 ft | 445 kts | 205° |
| 2026-05-04 17:52 | 32.51449 | -8.26046 | 26808 ft | 447 kts | 205° |
| 2026-05-04 17:52 | 32.48546 | -8.27394 | 27100 ft | 449 kts | 205° |
| 2026-05-04 17:52 | 32.45626 | -8.28746 | 27379 ft | 451 kts | 205° |
| 2026-05-04 17:53 | 32.42702 | -8.30100 | 27655 ft | 452 kts | 205° |
| 2026-05-04 17:53 | 32.39777 | -8.31454 | 28068 ft | 450 kts | 205° |
| 2026-05-04 17:53 | 32.36868 | -8.32801 | 28506 ft | 449 kts | 205° |
| 2026-05-04 17:53 | 32.33955 | -8.34145 | 28909 ft | 448 kts | 206° |
| 2026-05-04 17:54 | 32.31057 | -8.35479 | 29383 ft | 446 kts | 206° |
| 2026-05-04 17:54 | 32.28211 | -8.36794 | 29820 ft | 444 kts | 206° |
| 2026-05-04 17:54 | 32.25337 | -8.38123 | 30237 ft | 443 kts | 206° |
| 2026-05-04 17:54 | 32.22468 | -8.39449 | 30601 ft | 441 kts | 206° |
| 2026-05-04 17:55 | 32.19617 | -8.40763 | 30998 ft | 439 kts | 207° |
| 2026-05-04 17:55 | 32.16779 | -8.42068 | 31399 ft | 436 kts | 207° |
| 2026-05-04 17:55 | 32.13957 | -8.43366 | 31804 ft | 434 kts | 207° |
| 2026-05-04 17:55 | 32.11156 | -8.44653 | 32211 ft | 431 kts | 208° |
| 2026-05-04 17:56 | 32.08376 | -8.45964 | 32623 ft | 427 kts | 210° |
| 2026-05-04 17:56 | 32.05672 | -8.47387 | 33004 ft | 423 kts | 213° |
| 2026-05-04 17:56 | 32.03045 | -8.48883 | 33501 ft | 417 kts | 214° |
| 2026-05-04 17:56 | 32.00468 | -8.50409 | 33947 ft | 413 kts | 215° |
| 2026-05-04 17:57 | 31.97919 | -8.51935 | 34326 ft | 410 kts | 215° |
| 2026-05-04 17:57 | 31.95379 | -8.53446 | 34670 ft | 408 kts | 215° |
| 2026-05-04 17:57 | 31.92832 | -8.54936 | 34998 ft | 407 kts | 214° |
| 2026-05-04 17:57 | 31.90288 | -8.56400 | 35307 ft | 406 kts | 214° |
| 2026-05-04 17:58 | 31.87746 | -8.57845 | 35581 ft | 405 kts | 214° |
| 2026-05-04 17:58 | 31.85209 | -8.59282 | 35872 ft | 404 kts | 214° |
| 2026-05-04 17:58 | 31.82671 | -8.60716 | 36130 ft | 403 kts | 214° |
| 2026-05-04 17:58 | 31.80177 | -8.62125 | 36391 ft | 403 kts | 214° |
| 2026-05-04 17:59 | 31.77657 | -8.63552 | 36616 ft | 401 kts | 214° |
| 2026-05-04 17:59 | 31.75145 | -8.64974 | 36891 ft | 400 kts | 214° |
| 2026-05-04 17:59 | 31.70119 | -8.67825 | 36997 ft | 402 kts | 214° |
| 2026-05-04 18:00 | 31.67603 | -8.69253 | 36990 ft | 402 kts | 214° |
| 2026-05-04 18:00 | 31.62560 | -8.72106 | 37001 ft | 402 kts | 214° |
| 2026-05-04 18:01 | 31.57480 | -8.74989 | 36990 ft | 407 kts | 214° |
| 2026-05-04 18:01 | 31.52365 | -8.77877 | 36992 ft | 408 kts | 214° |
| 2026-05-04 18:02 | 31.44523 | -8.81878 | 36975 ft | 411 kts | 211° |
| 2026-05-04 18:02 | 31.39228 | -8.84445 | 36999 ft | 411 kts | 211° |
| 2026-05-04 18:03 | 31.33966 | -8.87043 | 37006 ft | 410 kts | 212° |
| 2026-05-04 18:03 | 31.28714 | -8.89666 | 37022 ft | 410 kts | 212° |
| 2026-05-04 18:04 | 31.23466 | -8.92286 | 37021 ft | 410 kts | 212° |
| 2026-05-04 18:05 | 31.15621 | -8.96186 | 36995 ft | 410 kts | 212° |
| 2026-05-04 18:05 | 31.10369 | -8.98795 | 37012 ft | 410 kts | 212° |
| 2026-05-04 18:06 | 31.02505 | -9.02700 | 37016 ft | 409 kts | 212° |
| 2026-05-04 18:06 | 30.97274 | -9.05290 | 37000 ft | 409 kts | 212° |
| 2026-05-04 18:07 | 30.92036 | -9.07883 | 36975 ft | 409 kts | 212° |
| 2026-05-04 18:07 | 30.86802 | -9.10476 | 36988 ft | 408 kts | 211° |
| 2026-05-04 18:08 | 30.81581 | -9.13063 | 36978 ft | 407 kts | 211° |
| 2026-05-04 18:08 | 30.76391 | -9.15631 | 36979 ft | 407 kts | 212° |
| 2026-05-04 18:09 | 30.65978 | -9.20828 | 36972 ft | 406 kts | 212° |
| 2026-05-04 18:10 | 30.60813 | -9.23526 | 36920 ft | 406 kts | 213° |
| 2026-05-04 18:10 | 30.55667 | -9.26224 | 36931 ft | 406 kts | 212° |
| 2026-05-04 18:11 | 30.51383 | -9.28450 | 36941 ft | 406 kts | 212° |
| 2026-05-04 18:11 | 30.45389 | -9.31545 | 36946 ft | 406 kts | 212° |
| 2026-05-04 18:12 | 30.41063 | -9.33773 | 36951 ft | 406 kts | 212° |
| 2026-05-04 18:12 | 30.35938 | -9.36482 | 36954 ft | 400 kts | 217° |
| 2026-05-04 18:13 | 30.31828 | -9.40487 | 36949 ft | 383 kts | 236° |
| 2026-05-04 18:13 | 30.29264 | -9.45799 | 36947 ft | 378 kts | 248° |
| 2026-05-04 18:14 | 30.28173 | -9.48567 | 36974 ft | 378 kts | 247° |
| 2026-05-04 18:14 | 30.25985 | -9.54086 | 36979 ft | 377 kts | 247° |
| 2026-05-04 18:15 | 30.21606 | -9.65112 | 36979 ft | 376 kts | 247° |
| 2026-05-04 18:16 | 30.19428 | -9.70605 | 36989 ft | 376 kts | 247° |
| 2026-05-04 18:16 | 30.17241 | -9.76109 | 36988 ft | 376 kts | 247° |
| 2026-05-04 18:17 | 30.13963 | -9.84357 | 37020 ft | 376 kts | 247° |
| 2026-05-04 18:18 | 30.10671 | -9.92575 | 37020 ft | 375 kts | 247° |
| 2026-05-04 18:18 | 30.08485 | -9.98050 | 37019 ft | 375 kts | 247° |
| 2026-05-04 18:19 | 30.05218 | -10.06223 | 37026 ft | 376 kts | 247° |
| 2026-05-04 18:19 | 30.03022 | -10.11690 | 37026 ft | 375 kts | 247° |
| 2026-05-04 18:20 | 30.00821 | -10.17159 | 37032 ft | 375 kts | 247° |
| 2026-05-04 18:20 | 29.98624 | -10.22616 | 37011 ft | 375 kts | 246° |
| 2026-05-04 18:21 | 29.96418 | -10.28081 | 37017 ft | 375 kts | 246° |
| 2026-05-04 18:21 | 29.94214 | -10.33538 | 37025 ft | 375 kts | 246° |
| 2026-05-04 18:22 | 29.92010 | -10.38993 | 37023 ft | 375 kts | 246° |
| 2026-05-04 18:22 | 29.89797 | -10.44445 | 37029 ft | 376 kts | 246° |
| 2026-05-04 18:23 | 29.87600 | -10.49862 | 37038 ft | 376 kts | 246° |
| 2026-05-04 18:23 | 29.85387 | -10.55319 | 37032 ft | 376 kts | 246° |
| 2026-05-04 18:24 | 29.83169 | -10.60780 | 37048 ft | 376 kts | 246° |
| 2026-05-04 18:24 | 29.80947 | -10.66232 | 37047 ft | 376 kts | 246° |
| 2026-05-04 18:25 | 29.78725 | -10.71677 | 37047 ft | 375 kts | 246° |
| 2026-05-04 18:25 | 29.76500 | -10.77111 | 37053 ft | 375 kts | 246° |
| 2026-05-04 18:26 | 29.74278 | -10.82541 | 37054 ft | 375 kts | 246° |
| 2026-05-04 18:26 | 29.72069 | -10.87944 | 37060 ft | 375 kts | 246° |
| 2026-05-04 18:27 | 29.69843 | -10.93379 | 37064 ft | 375 kts | 246° |
| 2026-05-04 18:27 | 29.67613 | -10.98815 | 37068 ft | 375 kts | 246° |
| 2026-05-04 18:28 | 29.65380 | -11.04235 | 37069 ft | 375 kts | 245° |
| 2026-05-04 18:28 | 29.63145 | -11.09647 | 37036 ft | 375 kts | 245° |
| 2026-05-04 18:29 | 29.60902 | -11.15071 | 37044 ft | 376 kts | 245° |
| 2026-05-04 18:29 | 29.58658 | -11.20497 | 37052 ft | 376 kts | 245° |
| 2026-05-04 18:30 | 29.55292 | -11.28637 | 37048 ft | 376 kts | 245° |
| 2026-05-04 18:31 | 29.53058 | -11.34034 | 37073 ft | 376 kts | 245° |
| 2026-05-04 18:31 | 29.50810 | -11.39465 | 37061 ft | 376 kts | 245° |
| 2026-05-04 18:32 | 29.48552 | -11.44890 | 37061 ft | 376 kts | 245° |
| 2026-05-04 18:32 | 29.46289 | -11.50309 | 37065 ft | 376 kts | 245° |
| 2026-05-04 18:33 | 29.44038 | -11.55688 | 37070 ft | 376 kts | 245° |
| 2026-05-04 18:33 | 29.41780 | -11.61093 | 37065 ft | 376 kts | 245° |
| 2026-05-04 18:34 | 29.39525 | -11.66503 | 37064 ft | 376 kts | 245° |
| 2026-05-04 18:34 | 29.37269 | -11.71904 | 37065 ft | 375 kts | 245° |
| 2026-05-04 18:35 | 29.35002 | -11.77295 | 37063 ft | 375 kts | 245° |
| 2026-05-04 18:35 | 29.32736 | -11.82685 | 37058 ft | 375 kts | 245° |
| 2026-05-04 18:36 | 29.30463 | -11.88079 | 37068 ft | 376 kts | 245° |
| 2026-05-04 18:36 | 29.28199 | -11.93427 | 37042 ft | 376 kts | 245° |
| 2026-05-04 18:37 | 29.25927 | -11.98824 | 37044 ft | 376 kts | 245° |
| 2026-05-04 18:37 | 29.23651 | -12.04225 | 37057 ft | 377 kts | 245° |
| 2026-05-04 18:38 | 29.21368 | -12.09625 | 37062 ft | 377 kts | 245° |
| 2026-05-04 18:38 | 29.19090 | -12.15027 | 37062 ft | 377 kts | 245° |
| 2026-05-04 18:39 | 29.16799 | -12.20423 | 37068 ft | 377 kts | 244° |
| 2026-05-04 18:39 | 29.14519 | -12.25778 | 37068 ft | 377 kts | 244° |
| 2026-05-04 18:40 | 29.12222 | -12.31183 | 37070 ft | 377 kts | 244° |
| 2026-05-04 18:40 | 29.09920 | -12.36589 | 37076 ft | 377 kts | 244° |
| 2026-05-04 18:41 | 29.07617 | -12.41987 | 37098 ft | 377 kts | 244° |
| 2026-05-04 18:41 | 29.05312 | -12.47379 | 37093 ft | 377 kts | 244° |
| 2026-05-04 18:42 | 29.03007 | -12.52763 | 37090 ft | 377 kts | 244° |
| 2026-05-04 18:42 | 29.00705 | -12.58144 | 37088 ft | 377 kts | 244° |
| 2026-05-04 18:43 | 28.98415 | -12.63489 | 37076 ft | 377 kts | 244° |
| 2026-05-04 18:43 | 28.96103 | -12.68859 | 37079 ft | 376 kts | 244° |
| 2026-05-04 18:44 | 28.93794 | -12.74224 | 37075 ft | 376 kts | 244° |
| 2026-05-04 18:44 | 28.91488 | -12.79583 | 37056 ft | 376 kts | 244° |
| 2026-05-04 18:45 | 28.89112 | -12.84907 | 37062 ft | 377 kts | 242° |
| 2026-05-04 18:45 | 28.86563 | -12.90133 | 37069 ft | 377 kts | 241° |
| 2026-05-04 18:46 | 28.83997 | -12.95315 | 37074 ft | 378 kts | 242° |
| 2026-05-04 18:46 | 28.81428 | -13.00540 | 37076 ft | 377 kts | 242° |
| 2026-05-04 18:47 | 28.78872 | -13.05784 | 37079 ft | 377 kts | 242° |
| 2026-05-04 18:47 | 28.76325 | -13.11014 | 37080 ft | 377 kts | 242° |
| 2026-05-04 18:48 | 28.73780 | -13.16243 | 37094 ft | 377 kts | 242° |
| 2026-05-04 18:48 | 28.71238 | -13.21465 | 37091 ft | 377 kts | 242° |
| 2026-05-04 18:49 | 28.68717 | -13.26646 | 37093 ft | 376 kts | 242° |
| 2026-05-04 18:49 | 28.66172 | -13.31856 | 37089 ft | 376 kts | 242° |
| 2026-05-04 18:50 | 28.63625 | -13.37048 | 37079 ft | 375 kts | 242° |
| 2026-05-04 18:50 | 28.61072 | -13.42234 | 37078 ft | 375 kts | 242° |
| 2026-05-04 18:51 | 28.58522 | -13.47423 | 37078 ft | 376 kts | 242° |
| 2026-05-04 18:51 | 28.55972 | -13.52615 | 37067 ft | 376 kts | 241° |
| 2026-05-04 18:52 | 28.53415 | -13.57800 | 37067 ft | 375 kts | 241° |
| 2026-05-04 18:52 | 28.50878 | -13.62954 | 37066 ft | 375 kts | 242° |
| 2026-05-04 18:53 | 28.48324 | -13.68129 | 37066 ft | 375 kts | 241° |
| 2026-05-04 18:53 | 28.45760 | -13.73299 | 37065 ft | 375 kts | 241° |
| 2026-05-04 18:54 | 28.43213 | -13.78455 | 36702 ft | 371 kts | 241° |
| 2026-05-04 18:54 | 28.41952 | -13.81000 | 36149 ft | 368 kts | 241° |
| 2026-05-04 18:54 | 28.40703 | -13.83519 | 35592 ft | 365 kts | 242° |
| 2026-05-04 18:54 | 28.39451 | -13.86040 | 34713 ft | 370 kts | 241° |
| 2026-05-04 18:55 | 28.38178 | -13.88605 | 33787 ft | 375 kts | 242° |
| 2026-05-04 18:55 | 28.35612 | -13.93769 | 32001 ft | 381 kts | 242° |
| 2026-05-04 18:55 | 28.34293 | -13.96421 | 31365 ft | 390 kts | 242° |
| 2026-05-04 18:56 | 28.32940 | -13.99143 | 31144 ft | 400 kts | 242° |
| 2026-05-04 18:56 | 28.31567 | -14.01901 | 31028 ft | 402 kts | 242° |
| 2026-05-04 18:56 | 28.28794 | -14.07449 | 31058 ft | 406 kts | 242° |
| 2026-05-04 18:57 | 28.26000 | -14.13039 | 31056 ft | 408 kts | 242° |
| 2026-05-04 18:57 | 28.23204 | -14.18636 | 31054 ft | 408 kts | 242° |
| 2026-05-04 18:58 | 28.20406 | -14.24229 | 31031 ft | 407 kts | 242° |
| 2026-05-04 18:58 | 28.17611 | -14.29810 | 31054 ft | 407 kts | 241° |
| 2026-05-04 18:59 | 28.14812 | -14.35394 | 31054 ft | 407 kts | 241° |
| 2026-05-04 18:59 | 28.12010 | -14.40968 | 31051 ft | 407 kts | 241° |
| 2026-05-04 19:00 | 28.09221 | -14.46503 | 31054 ft | 406 kts | 241° |
| 2026-05-04 19:00 | 28.06423 | -14.52070 | 31058 ft | 407 kts | 241° |
| 2026-05-04 19:01 | 28.04088 | -14.56696 | 31054 ft | 407 kts | 241° |
| 2026-05-04 19:01 | 28.01281 | -14.62257 | 31057 ft | 406 kts | 242° |
| 2026-05-04 19:02 | 27.99243 | -14.68193 | 30897 ft | 403 kts | 255° |
| 2026-05-04 19:02 | 27.98584 | -14.71249 | 30214 ft | 398 kts | 255° |
| 2026-05-04 19:02 | 27.97934 | -14.74295 | 29201 ft | 398 kts | 255° |
| 2026-05-04 19:03 | 27.97283 | -14.77342 | 28087 ft | 400 kts | 255° |
| 2026-05-04 19:03 | 27.96620 | -14.80417 | 26984 ft | 403 kts | 255° |
| 2026-05-04 19:03 | 27.95951 | -14.83513 | 25781 ft | 408 kts | 256° |
| 2026-05-04 19:03 | 27.95273 | -14.86634 | 24668 ft | 410 kts | 256° |
| 2026-05-04 19:04 | 27.94587 | -14.89774 | 23502 ft | 413 kts | 256° |
| 2026-05-04 19:04 | 27.93891 | -14.92964 | 22161 ft | 418 kts | 256° |
| 2026-05-04 19:04 | 27.93196 | -14.96151 | 21145 ft | 416 kts | 255° |
| 2026-05-04 19:04 | 27.92506 | -14.99313 | 20238 ft | 412 kts | 255° |
| 2026-05-04 19:05 | 27.91823 | -15.02447 | 19382 ft | 409 kts | 255° |
| 2026-05-04 19:05 | 27.91156 | -15.05515 | 18607 ft | 407 kts | 255° |
| 2026-05-04 19:05 | 27.90480 | -15.08626 | 18222 ft | 408 kts | 255° |
| 2026-05-04 19:05 | 27.89798 | -15.11739 | 18035 ft | 408 kts | 255° |
| 2026-05-04 19:06 | 27.89113 | -15.14851 | 18056 ft | 409 kts | 255° |
| 2026-05-04 19:06 | 27.88427 | -15.17974 | 18058 ft | 409 kts | 255° |
| 2026-05-04 19:06 | 27.87743 | -15.21090 | 18058 ft | 409 kts | 255° |
| 2026-05-04 19:06 | 27.87055 | -15.24215 | 18058 ft | 409 kts | 255° |
| 2026-05-04 19:07 | 27.86368 | -15.27334 | 18057 ft | 409 kts | 255° |
| 2026-05-04 19:07 | 27.85679 | -15.30454 | 18057 ft | 409 kts | 255° |
| 2026-05-04 19:07 | 27.84989 | -15.33569 | 18057 ft | 409 kts | 255° |
| 2026-05-04 19:07 | 27.84298 | -15.36695 | 18057 ft | 409 kts | 255° |
| 2026-05-04 19:08 | 27.83614 | -15.39810 | 18057 ft | 409 kts | 256° |
| 2026-05-04 19:08 | 27.83173 | -15.42989 | 18057 ft | 411 kts | 263° |
| 2026-05-04 19:08 | 27.83127 | -15.46218 | 18058 ft | 413 kts | 270° |
| 2026-05-04 19:08 | 27.83399 | -15.49416 | 18059 ft | 414 kts | 273° |
| 2026-05-04 19:09 | 27.83693 | -15.52655 | 18056 ft | 414 kts | 273° |
| 2026-05-04 19:09 | 27.83979 | -15.55888 | 18059 ft | 414 kts | 272° |
| 2026-05-04 19:09 | 27.84261 | -15.59124 | 18056 ft | 414 kts | 272° |
| 2026-05-04 19:09 | 27.84539 | -15.62365 | 18054 ft | 415 kts | 272° |
| 2026-05-04 19:10 | 27.84816 | -15.65627 | 18066 ft | 415 kts | 272° |
| 2026-05-04 19:10 | 27.85094 | -15.68871 | 18059 ft | 415 kts | 272° |
| 2026-05-04 19:10 | 27.85371 | -15.72121 | 18059 ft | 415 kts | 272° |
| 2026-05-04 19:10 | 27.85647 | -15.75363 | 18059 ft | 415 kts | 272° |
| 2026-05-04 19:11 | 27.85924 | -15.78609 | 18056 ft | 415 kts | 272° |
| 2026-05-04 19:11 | 27.86201 | -15.81853 | 18061 ft | 415 kts | 272° |
| 2026-05-04 19:11 | 27.86476 | -15.85102 | 18062 ft | 415 kts | 272° |
| 2026-05-04 19:11 | 27.86753 | -15.88351 | 18050 ft | 415 kts | 272° |
| 2026-05-04 19:12 | 27.87028 | -15.91596 | 17860 ft | 414 kts | 272° |
| 2026-05-04 19:12 | 27.87576 | -15.98038 | 17082 ft | 407 kts | 272° |
| 2026-05-04 19:12 | 27.87844 | -16.01210 | 16230 ft | 404 kts | 272° |
| 2026-05-04 19:13 | 27.88105 | -16.04322 | 15409 ft | 402 kts | 272° |
| 2026-05-04 19:13 | 27.88367 | -16.07450 | 14599 ft | 399 kts | 272° |
| 2026-05-04 19:13 | 27.88624 | -16.10568 | 13796 ft | 397 kts | 272° |
| 2026-05-04 19:13 | 27.88879 | -16.13664 | 12932 ft | 395 kts | 272° |
| 2026-05-04 19:14 | 27.89133 | -16.16750 | 12075 ft | 393 kts | 273° |
| 2026-05-04 19:14 | 27.89384 | -16.19817 | 11231 ft | 391 kts | 273° |
| 2026-05-04 19:14 | 27.89635 | -16.22872 | 10391 ft | 389 kts | 274° |
| 2026-05-04 19:14 | 27.89769 | -16.25913 | 9565 ft | 386 kts | 264° |
| 2026-05-04 19:15 | 27.89128 | -16.28845 | 9201 ft | 386 kts | 248° |
| 2026-05-04 19:15 | 27.88085 | -16.31651 | 9031 ft | 388 kts | 247° |
| 2026-05-04 19:15 | 27.87042 | -16.34466 | 9048 ft | 388 kts | 247° |
| 2026-05-04 19:15 | 27.86002 | -16.37278 | 8976 ft | 386 kts | 247° |
| 2026-05-04 19:16 | 27.84973 | -16.40051 | 8202 ft | 381 kts | 247° |
| 2026-05-04 19:16 | 27.83946 | -16.42799 | 7410 ft | 377 kts | 247° |
| 2026-05-04 19:16 | 27.82928 | -16.45513 | 6598 ft | 376 kts | 247° |
| 2026-05-04 19:16 | 27.81920 | -16.48190 | 6200 ft | 361 kts | 247° |
| 2026-05-04 19:17 | 27.80962 | -16.50734 | 6041 ft | 341 kts | 247° |
| 2026-05-04 19:17 | 27.80065 | -16.53123 | 5994 ft | 319 kts | 248° |
| 2026-05-04 19:17 | 27.79228 | -16.55352 | 6008 ft | 298 kts | 248° |
| 2026-05-04 19:17 | 27.78441 | -16.57444 | 6002 ft | 279 kts | 248° |
| 2026-05-04 19:18 | 27.77707 | -16.59397 | 6010 ft | 261 kts | 248° |
| 2026-05-04 19:18 | 27.77028 | -16.61198 | 6008 ft | 245 kts | 248° |
| 2026-05-04 19:18 | 27.76370 | -16.62943 | 6007 ft | 240 kts | 248° |
| 2026-05-04 19:18 | 27.75720 | -16.64668 | 6007 ft | 238 kts | 248° |
| 2026-05-04 19:19 | 27.75071 | -16.66389 | 6004 ft | 239 kts | 248° |
| 2026-05-04 19:19 | 27.74560 | -16.68158 | 6009 ft | 237 kts | 263° |
| 2026-05-04 19:19 | 27.74644 | -16.70008 | 5960 ft | 238 kts | 284° |
| 2026-05-04 19:19 | 27.75337 | -16.71687 | 5592 ft | 238 kts | 307° |
| 2026-05-04 19:20 | 27.76503 | -16.73008 | 5235 ft | 237 kts | 317° |
| 2026-05-04 19:20 | 27.77716 | -16.74264 | 4918 ft | 235 kts | 317° |
| 2026-05-04 19:20 | 27.78914 | -16.75518 | 4577 ft | 234 kts | 317° |
| 2026-05-04 19:20 | 27.80097 | -16.76761 | 4272 ft | 231 kts | 317° |
| 2026-05-04 19:21 | 27.81248 | -16.77973 | 4045 ft | 228 kts | 317° |
| 2026-05-04 19:21 | 27.82411 | -16.79197 | 4008 ft | 229 kts | 317° |
| 2026-05-04 19:21 | 27.83582 | -16.80428 | 4010 ft | 230 kts | 318° |
| 2026-05-04 19:21 | 27.84618 | -16.81801 | 4011 ft | 232 kts | 299° |
| 2026-05-04 19:22 | 27.85125 | -16.83518 | 3819 ft | 232 kts | 277° |
| 2026-05-04 19:22 | 27.84980 | -16.85329 | 3456 ft | 234 kts | 253° |
| 2026-05-04 19:22 | 27.84353 | -16.87034 | 3122 ft | 235 kts | 249° |
| 2026-05-04 19:22 | 27.83707 | -16.88721 | 3010 ft | 234 kts | 249° |
| 2026-05-04 19:23 | 27.83063 | -16.90425 | 3018 ft | 237 kts | 249° |
| 2026-05-04 19:23 | 27.82421 | -16.92130 | 3022 ft | 236 kts | 249° |
| 2026-05-04 19:23 | 27.81775 | -16.93845 | 3021 ft | 238 kts | 249° |
| 2026-05-04 19:23 | 27.81130 | -16.95565 | 3020 ft | 238 kts | 249° |
| 2026-05-04 19:24 | 27.80484 | -16.97288 | 3025 ft | 239 kts | 249° |
| 2026-05-04 19:24 | 27.79837 | -16.99014 | 3024 ft | 238 kts | 249° |
| 2026-05-04 19:24 | 27.79189 | -17.00733 | 3022 ft | 237 kts | 249° |
| 2026-05-04 19:24 | 27.78541 | -17.02450 | 3023 ft | 237 kts | 248° |
| 2026-05-04 19:25 | 27.77947 | -17.04184 | 3020 ft | 236 kts | 259° |
| 2026-05-04 19:25 | 27.77930 | -17.05976 | 3017 ft | 224 kts | 285° |
| 2026-05-04 19:25 | 27.78578 | -17.07540 | 3016 ft | 219 kts | 310° |
| 2026-05-04 19:25 | 27.79731 | -17.08610 | 3030 ft | 211 kts | 334° |
| 2026-05-04 19:26 | 27.81100 | -17.09023 | 3021 ft | 195 kts | 357° |
| 2026-05-04 19:26 | 27.82383 | -17.08819 | 3019 ft | 182 kts | 18° |
| 2026-05-04 19:26 | 27.83467 | -17.08135 | 3031 ft | 178 kts | 38° |
| 2026-05-04 19:26 | 27.84325 | -17.07151 | 3025 ft | 177 kts | 45° |
| 2026-05-04 19:27 | 27.85177 | -17.06136 | 2955 ft | 172 kts | 45° |
| 2026-05-04 19:27 | 27.85990 | -17.05173 | 2549 ft | 172 kts | 44° |
| 2026-05-04 19:27 | 27.86790 | -17.04175 | 2163 ft | 170 kts | 51° |
| 2026-05-04 19:27 | 27.87404 | -17.03039 | 2132 ft | 171 kts | 62° |
| 2026-05-04 19:28 | 27.87879 | -17.01783 | 2133 ft | 175 kts | 64° |
| 2026-05-04 19:28 | 27.88354 | -17.00514 | 2129 ft | 175 kts | 64° |
| 2026-05-04 19:28 | 27.88832 | -16.99238 | 2124 ft | 179 kts | 65° |
| 2026-05-04 19:28 | 27.89321 | -16.97938 | 2125 ft | 180 kts | 64° |
| 2026-05-04 19:29 | 27.89812 | -16.96635 | 2128 ft | 180 kts | 65° |
| 2026-05-04 19:29 | 27.90298 | -16.95349 | 2125 ft | 180 kts | 65° |
| 2026-05-04 19:29 | 27.90788 | -16.94046 | 2126 ft | 180 kts | 65° |
| 2026-05-04 19:29 | 27.91279 | -16.92740 | 2125 ft | 181 kts | 65° |
| 2026-05-04 19:30 | 27.91772 | -16.91431 | 2122 ft | 181 kts | 65° |
| 2026-05-04 19:30 | 27.92264 | -16.90120 | 2119 ft | 181 kts | 65° |
| 2026-05-04 19:30 | 27.92756 | -16.88810 | 2118 ft | 181 kts | 65° |
| 2026-05-04 19:30 | 27.93249 | -16.87499 | 2118 ft | 181 kts | 65° |
| 2026-05-04 19:31 | 27.93743 | -16.86189 | 2114 ft | 181 kts | 64° |
| 2026-05-04 19:31 | 27.94264 | -16.84894 | 2113 ft | 181 kts | 63° |
| 2026-05-04 19:31 | 27.94794 | -16.83607 | 2114 ft | 181 kts | 63° |
| 2026-05-04 19:31 | 27.95333 | -16.82318 | 2111 ft | 181 kts | 60° |
| 2026-05-04 19:32 | 27.95975 | -16.81096 | 2114 ft | 181 kts | 59° |
| 2026-05-04 19:32 | 27.96521 | -16.79815 | 2114 ft | 181 kts | 64° |
| 2026-05-04 19:32 | 27.97013 | -16.78498 | 2114 ft | 181 kts | 65° |
| 2026-05-04 19:32 | 27.97486 | -16.77176 | 2114 ft | 181 kts | 66° |
| 2026-05-04 19:33 | 27.97952 | -16.75851 | 2110 ft | 181 kts | 66° |
| 2026-05-04 19:33 | 27.98416 | -16.74527 | 2110 ft | 181 kts | 66° |
| 2026-05-04 19:33 | 27.98880 | -16.73202 | 2112 ft | 181 kts | 66° |
| 2026-05-04 19:33 | 27.99337 | -16.71895 | 2112 ft | 181 kts | 66° |
| 2026-05-04 19:34 | 27.99785 | -16.70612 | 2101 ft | 162 kts | 66° |
| 2026-05-04 19:34 | 28.00177 | -16.69489 | 2069 ft | 149 kts | 64° |
| 2026-05-04 19:34 | 28.00552 | -16.68414 | 1940 ft | 141 kts | 64° |
| 2026-05-04 19:34 | 28.00895 | -16.67434 | 1784 ft | 134 kts | 64° |
| 2026-05-04 19:35 | 28.01236 | -16.66459 | 1619 ft | 132 kts | 64° |
| 2026-05-04 19:35 | 28.01573 | -16.65495 | 1437 ft | 132 kts | 63° |
| 2026-05-04 19:35 | 28.01912 | -16.64525 | 1269 ft | 133 kts | 66° |
| 2026-05-04 19:35 | 28.02248 | -16.63561 | 1098 ft | 130 kts | 64° |
| 2026-05-04 19:36 | 28.02579 | -16.62614 | 933 ft | 127 kts | 68° |
| 2026-05-04 19:36 | 28.02906 | -16.61676 | 771 ft | 127 kts | 69° |
| 2026-05-04 19:36 | 28.03232 | -16.60744 | 583 ft | 128 kts | 71° |
| 2026-05-04 19:36 | 28.03568 | -16.59804 | 433 ft | 130 kts | 74° |
| 2026-05-04 19:37 | 28.03890 | -16.58863 | 274 ft | 128 kts | 69° |
| 2026-05-04 19:37 | 28.04190 | -16.57986 | 202 ft | 105 kts | 69° |
| 2026-05-04 19:37 | 28.04391 | -16.57409 | 197 ft | 53 kts | 68° |
| 2026-05-04 19:37 | 28.04490 | -16.57135 | 202 ft | 31 kts | 64° |
| 2026-05-04 19:38 | 28.04604 | -16.56945 | 208 ft | 27 kts | 49° |
| 2026-05-04 19:38 | 28.04707 | -16.56817 | 216 ft | 15 kts | 39° |
| 2026-05-04 19:38 | 28.04775 | -16.56818 | 219 ft | 8 kts | 318° |
| 2026-05-04 19:38 | 28.04772 | -16.56870 | 219 ft | 6 kts | 252° |
| 2026-05-04 19:39 | 28.04757 | -16.56914 | 220 ft | 8 kts | 247° |
| 2026-05-04 19:39 | 28.04716 | -16.57031 | 223 ft | 17 kts | 249° |
| 2026-05-04 19:39 | 28.04654 | -16.57184 | 223 ft | 27 kts | 247° |
| 2026-05-04 19:39 | 28.04584 | -16.57384 | 223 ft | 23 kts | 248° |
| 2026-05-04 19:40 | 28.04600 | -16.57456 | 223 ft | 8 kts | 327° |
| 2026-05-04 19:40 | 28.04657 | -16.57485 | 224 ft | 8 kts | 331° |
| 2026-05-04 19:40 | 28.04674 | -16.57528 | 225 ft | 5 kts | 257° |
| 2026-05-04 19:40 | 28.04660 | -16.57567 | 225 ft | 10 kts | 246° |
| 2026-05-04 19:41 | 28.04642 | -16.57650 | 225 ft | 6 kts | 298° |
| 2026-05-04 19:41 | 28.04662 | -16.57660 | 225 ft | 2 kts | 336° |
| 2026-05-04 19:41 | 28.04688 | -16.57671 | 226 ft | 7 kts | 339° |
| 2026-05-04 19:41 | 28.04710 | -16.57681 | 226 ft | 0 kts | 339° |